Time;durP1;ratioP1;P1;durP2;ratioP2;P2;SDS_P1;SDS_P2;PMS_P1;PMS_P2;Temp;Humidity;BMP_temperature;BMP_pressure;BME280_temperature;BME280_humidity;BME280_pressure;Samples;Min_cycle;Max_cycle;Signal;HPM_P1;HPM_P2
2024/01/10 00:01:13;;;;;;;21.73;16.70;;;;;;;;;;4994427;28;20548;-47
2024/01/10 00:03:40;;;;;;;26.00;16.30;;;;;;;;;;4993018;28;20061;-46
2024/01/10 00:06:06;;;;;;;19.42;14.57;;;;;;;;;;4994447;28;20051;-46
2024/01/10 00:08:31;;;;;;;22.58;16.55;;;;;;;;;;4985499;28;20066;-49
2024/01/10 00:10:57;;;;;;;22.60;14.90;;;;;;;;;;4992962;28;20026;-48
2024/01/10 00:13:22;;;;;;;21.15;15.32;;;;;;;;;;4992191;28;20057;-48
2024/01/10 00:15:48;;;;;;;23.27;16.10;;;;;;;;;;4993570;28;20053;-47
2024/01/10 00:18:14;;;;;;;20.05;15.23;;;;;;;;;;4999637;28;20468;-47
2024/01/10 00:20:39;;;;;;;24.38;16.48;;;;;;;;;;4985807;28;20030;-45
2024/01/10 00:23:06;;;;;;;24.70;16.08;;;;;;;;;;4992132;28;20104;-49
2024/01/10 00:25:32;;;;;;;26.02;17.92;;;;;;;;;;4986001;28;20038;-49
2024/01/10 00:27:57;;;;;;;25.13;16.08;;;;;;;;;;4992122;28;20025;-46
2024/01/10 00:30:23;;;;;;;23.25;16.35;;;;;;;;;;4992641;28;20036;-45
2024/01/10 00:32:48;;;;;;;23.38;15.88;;;;;;;;;;4999260;28;20505;-48
2024/01/10 00:35:14;;;;;;;23.17;17.55;;;;;;;;;;4997238;28;20042;-46
2024/01/10 00:37:39;;;;;;;23.38;17.23;;;;;;;;;;4995341;28;20068;-46
2024/01/10 00:40:05;;;;;;;25.02;17.38;;;;;;;;;;4990669;28;20070;-50
2024/01/10 00:42:31;;;;;;;26.52;17.33;;;;;;;;;;4986878;28;20029;-46
2024/01/10 00:44:56;;;;;;;27.55;19.08;;;;;;;;;;4992819;28;20043;-48
2024/01/10 00:47:22;;;;;;;26.83;18.15;;;;;;;;;;4999691;28;20034;-50
2024/01/10 00:49:47;;;;;;;29.77;19.92;;;;;;;;;;4987300;28;20088;-46
2024/01/10 00:52:12;;;;;;;28.52;18.95;;;;;;;;;;4978586;28;20120;-47
2024/01/10 00:54:38;;;;;;;27.60;18.75;;;;;;;;;;4986265;28;20137;-49
2024/01/10 00:57:03;;;;;;;28.98;19.77;;;;;;;;;;4989125;28;20026;-49
2024/01/10 00:59:29;;;;;;;28.02;19.50;;;;;;;;;;4984942;28;20073;-46
2024/01/10 01:01:54;;;;;;;30.60;19.40;;;;;;;;;;4987035;28;20037;-46
2024/01/10 01:04:20;;;;;;;28.08;20.45;;;;;;;;;;4975963;28;20035;-46
2024/01/10 01:06:46;;;;;;;29.33;19.90;;;;;;;;;;4995133;28;20459;-46
2024/01/10 01:09:13;;;;;;;27.92;19.95;;;;;;;;;;4991359;28;20058;-48
2024/01/10 01:11:39;;;;;;;24.90;19.05;;;;;;;;;;4979306;28;20109;-46
2024/01/10 01:14:05;;;;;;;27.65;17.95;;;;;;;;;;4987725;28;20057;-47
2024/01/10 01:16:30;;;;;;;28.77;19.05;;;;;;;;;;4988379;28;20468;-48
2024/01/10 01:18:55;;;;;;;31.30;19.10;;;;;;;;;;4987269;28;20513;-48
2024/01/10 01:21:21;;;;;;;29.27;20.15;;;;;;;;;;4988761;28;20033;-47
2024/01/10 01:23:46;;;;;;;28.33;17.75;;;;;;;;;;4985418;28;20038;-48
2024/01/10 01:26:13;;;;;;;27.80;18.67;;;;;;;;;;4993138;28;20033;-48
2024/01/10 01:28:39;;;;;;;26.65;19.13;;;;;;;;;;4985194;28;20042;-46
2024/01/10 01:31:04;;;;;;;26.50;19.40;;;;;;;;;;4991219;28;20039;-48
2024/01/10 01:33:30;;;;;;;24.88;19.10;;;;;;;;;;4995249;28;20042;-45
2024/01/10 01:35:55;;;;;;;28.63;19.25;;;;;;;;;;4988474;28;20034;-48
2024/01/10 01:38:20;;;;;;;27.77;18.85;;;;;;;;;;4990954;28;20118;-48
2024/01/10 01:40:46;;;;;;;26.85;21.15;;;;;;;;;;4994258;28;20025;-49
2024/01/10 01:43:24;;;;;;;25.25;19.38;;;;;;;;;;4983862;28;20037;-49
2024/01/10 01:45:54;;;;;;;29.13;19.63;;;;;;;;;;4991774;28;20026;-46
2024/01/10 01:48:20;;;;;;;25.55;16.90;;;;;;;;;;4982337;28;20053;-45
2024/01/10 01:50:48;;;;;;;28.15;19.05;;;;;;;;;;4985665;28;20033;-45
2024/01/10 01:53:14;;;;;;;27.80;20.83;;;;;;;;;;4986029;28;20039;-50
2024/01/10 01:55:41;;;;;;;30.98;22.55;;;;;;;;;;4986139;28;20030;-47
2024/01/10 01:58:07;;;;;;;29.98;19.90;;;;;;;;;;4989925;28;20034;-49
2024/01/10 02:00:34;;;;;;;28.08;19.63;;;;;;;;;;4966145;28;20031;-47
2024/01/10 02:02:59;;;;;;;31.60;22.15;;;;;;;;;;4958264;28;20448;-46
2024/01/10 02:05:26;;;;;;;30.00;20.80;;;;;;;;;;4971180;28;20027;-47
2024/01/10 02:07:51;;;;;;;31.33;21.40;;;;;;;;;;4971572;28;20098;-45
2024/01/10 02:10:19;;;;;;;30.00;20.73;;;;;;;;;;4983969;28;20046;-45
2024/01/10 02:12:45;;;;;;;31.48;21.10;;;;;;;;;;4992825;28;20026;-49
2024/01/10 02:15:10;;;;;;;27.92;20.02;;;;;;;;;;4986171;28;20102;-48
2024/01/10 02:17:36;;;;;;;28.92;21.02;;;;;;;;;;4988937;28;20496;-50
2024/01/10 02:20:11;;;;;;;27.75;19.38;;;;;;;;;;4980314;28;20125;-47
2024/01/10 02:22:37;;;;;;;24.70;17.88;;;;;;;;;;4992930;28;20048;-46
2024/01/10 02:25:09;;;;;;;25.65;17.40;;;;;;;;;;4986168;28;20113;-48
2024/01/10 02:27:39;;;;;;;36.55;20.48;;;;;;;;;;4984969;28;20019;-45
2024/01/10 02:30:05;;;;;;;32.67;19.45;;;;;;;;;;4989056;28;20038;-45
2024/01/10 02:32:31;;;;;;;26.33;17.45;;;;;;;;;;4992871;28;20022;-50
2024/01/10 02:34:57;;;;;;;29.20;19.48;;;;;;;;;;4991299;28;20038;-44
2024/01/10 02:37:23;;;;;;;29.58;18.77;;;;;;;;;;4992868;28;20025;-47
2024/01/10 02:39:48;;;;;;;33.53;20.83;;;;;;;;;;4970167;28;20544;-45
2024/01/10 02:42:14;;;;;;;29.48;18.83;;;;;;;;;;4986877;28;20022;-49
2024/01/10 02:44:39;;;;;;;27.23;19.50;;;;;;;;;;4983528;28;20061;-45
2024/01/10 02:47:06;;;;;;;32.22;21.13;;;;;;;;;;4990710;28;20029;-45
2024/01/10 02:49:32;;;;;;;24.17;19.48;;;;;;;;;;4988761;28;20039;-46
2024/01/10 02:51:57;;;;;;;26.65;17.48;;;;;;;;;;4985776;28;20043;-47
2024/01/10 02:54:22;;;;;;;24.67;17.52;;;;;;;;;;4984998;28;20038;-49
2024/01/10 02:56:48;;;;;;;21.48;17.58;;;;;;;;;;4985037;28;20049;-44
2024/01/10 02:59:13;;;;;;;22.13;17.63;;;;;;;;;;4976803;28;20153;-45
2024/01/10 03:01:39;;;;;;;20.38;15.50;;;;;;;;;;4960123;28;20035;-45
2024/01/10 03:04:04;;;;;;;21.60;15.95;;;;;;;;;;4991312;28;20144;-46
2024/01/10 03:06:29;;;;;;;26.58;18.05;;;;;;;;;;4991084;28;20054;-49
2024/01/10 03:08:55;;;;;;;25.17;17.40;;;;;;;;;;4985978;28;20053;-48
2024/01/10 03:11:21;;;;;;;28.55;19.05;;;;;;;;;;4980774;28;20015;-45
2024/01/10 03:13:47;;;;;;;22.17;16.10;;;;;;;;;;4982761;28;20069;-48
2024/01/10 03:16:13;;;;;;;24.35;17.27;;;;;;;;;;4981750;28;20090;-47
2024/01/10 03:18:38;;;;;;;23.15;16.95;;;;;;;;;;4992576;28;20102;-48
2024/01/10 03:21:04;;;;;;;22.80;16.33;;;;;;;;;;4980524;28;20477;-48
2024/01/10 03:23:29;;;;;;;26.10;16.92;;;;;;;;;;4990011;28;20500;-47
2024/01/10 03:25:58;;;;;;;23.92;16.42;;;;;;;;;;4986643;28;20053;-47
2024/01/10 03:28:24;;;;;;;25.17;15.75;;;;;;;;;;4979008;28;20540;-49
2024/01/10 03:30:49;;;;;;;22.80;16.13;;;;;;;;;;4988742;28;20123;-47
2024/01/10 03:33:15;;;;;;;23.45;16.15;;;;;;;;;;4995385;28;20038;-48
2024/01/10 03:35:41;;;;;;;21.58;15.55;;;;;;;;;;4984796;28;20046;-48
2024/01/10 03:38:07;;;;;;;24.85;16.98;;;;;;;;;;4987833;28;20035;-47
2024/01/10 03:40:32;;;;;;;23.95;17.40;;;;;;;;;;4984198;28;20057;-48
2024/01/10 03:42:58;;;;;;;23.60;16.65;;;;;;;;;;4987862;28;20019;-47
2024/01/10 03:45:23;;;;;;;25.52;15.95;;;;;;;;;;4994298;28;20050;-48
2024/01/10 03:47:52;;;;;;;21.65;17.13;;;;;;;;;;4986009;28;20026;-49
2024/01/10 03:50:19;;;;;;;23.23;17.85;;;;;;;;;;4986458;28;20126;-44
2024/01/10 03:52:45;;;;;;;22.23;15.85;;;;;;;;;;4984806;28;20050;-47
2024/01/10 03:55:12;;;;;;;23.70;15.90;;;;;;;;;;4990432;28;20048;-47
2024/01/10 03:57:38;;;;;;;22.13;15.10;;;;;;;;;;5003571;28;20089;-49
2024/01/10 04:00:06;;;;;;;21.67;15.15;;;;;;;;;;4983051;28;20031;-49
2024/01/10 04:02:32;;;;;;;22.17;15.43;;;;;;;;;;4985031;28;20069;-45
2024/01/10 04:04:57;;;;;;;21.67;15.35;;;;;;;;;;4993687;28;20038;-48
2024/01/10 04:07:22;;;;;;;23.35;16.45;;;;;;;;;;4989330;28;20102;-45
2024/01/10 04:09:48;;;;;;;22.40;16.08;;;;;;;;;;4986601;28;20038;-46
2024/01/10 04:12:13;;;;;;;21.67;18.45;;;;;;;;;;4991107;28;20037;-44
2024/01/10 04:14:39;;;;;;;19.83;14.40;;;;;;;;;;4994381;28;20038;-45
2024/01/10 04:17:04;;;;;;;17.67;13.90;;;;;;;;;;4983531;28;20030;-45
2024/01/10 04:19:30;;;;;;;21.02;14.40;;;;;;;;;;4980795;28;20511;-47
2024/01/10 04:21:55;;;;;;;20.38;14.07;;;;;;;;;;4990556;28;20054;-47
2024/01/10 04:24:21;;;;;;;19.88;14.98;;;;;;;;;;5002126;28;20046;-44
2024/01/10 04:26:46;;;;;;;21.02;14.85;;;;;;;;;;4988849;28;20054;-51
2024/01/10 04:29:12;;;;;;;20.75;14.25;;;;;;;;;;4980336;28;20042;-48
2024/01/10 04:31:38;;;;;;;17.40;13.82;;;;;;;;;;4986947;28;20034;-47
2024/01/10 04:34:03;;;;;;;22.27;14.32;;;;;;;;;;4990706;28;20035;-48
2024/01/10 04:36:29;;;;;;;19.90;13.98;;;;;;;;;;4975725;28;20015;-46
2024/01/10 04:38:54;;;;;;;19.42;13.95;;;;;;;;;;4994253;28;20057;-45
2024/01/10 04:41:19;;;;;;;21.40;16.67;;;;;;;;;;4990953;28;20433;-47
2024/01/10 04:43:45;;;;;;;21.50;14.80;;;;;;;;;;4988700;28;20039;-47
2024/01/10 04:46:10;;;;;;;20.10;16.08;;;;;;;;;;4995607;28;20358;-46
2024/01/10 04:48:37;;;;;;;21.67;14.82;;;;;;;;;;4992025;28;20396;-48
2024/01/10 04:51:02;;;;;;;23.00;14.60;;;;;;;;;;4968017;28;20038;-44
2024/01/10 04:53:28;;;;;;;21.95;14.65;;;;;;;;;;4995537;28;20035;-49
2024/01/10 04:55:53;;;;;;;17.80;14.23;;;;;;;;;;4992393;28;20031;-50
2024/01/10 04:58:18;;;;;;;21.42;15.50;;;;;;;;;;4991580;28;20065;-45
2024/01/10 05:00:44;;;;;;;23.42;14.48;;;;;;;;;;4996651;28;20117;-48
2024/01/10 05:03:09;;;;;;;22.65;16.45;;;;;;;;;;4975739;28;20432;-46
2024/01/10 05:05:35;;;;;;;21.45;13.80;;;;;;;;;;4984465;28;20484;-49
2024/01/10 05:08:01;;;;;;;21.63;14.30;;;;;;;;;;4994445;28;20050;-47
2024/01/10 05:10:27;;;;;;;21.90;15.15;;;;;;;;;;4992545;28;20034;-46
2024/01/10 05:12:52;;;;;;;20.42;15.25;;;;;;;;;;4991250;28;20065;-45
2024/01/10 05:15:19;;;;;;;22.27;16.50;;;;;;;;;;4984402;28;20123;-46
2024/01/10 05:17:44;;;;;;;20.92;16.45;;;;;;;;;;4985738;28;20097;-50
2024/01/10 05:20:10;;;;;;;24.63;16.00;;;;;;;;;;4993615;28;20034;-46
2024/01/10 05:22:35;;;;;;;20.45;14.85;;;;;;;;;;4982689;28;20085;-44
2024/01/10 05:25:01;;;;;;;24.05;16.40;;;;;;;;;;4989887;28;20069;-48
2024/01/10 05:27:27;;;;;;;24.33;19.58;;;;;;;;;;4988530;28;20381;-44
2024/01/10 05:29:52;;;;;;;26.52;19.33;;;;;;;;;;4997336;28;20093;-48
2024/01/10 05:32:17;;;;;;;26.92;18.63;;;;;;;;;;4992304;28;20038;-45
2024/01/10 05:34:44;;;;;;;29.90;18.92;;;;;;;;;;4992007;28;20041;-46
2024/01/10 05:37:10;;;;;;;25.10;17.40;;;;;;;;;;4997541;28;20042;-47
2024/01/10 05:39:36;;;;;;;22.42;15.07;;;;;;;;;;4990422;28;20510;-46
2024/01/10 05:42:05;;;;;;;24.13;17.85;;;;;;;;;;4984724;28;20034;-46
2024/01/10 05:44:30;;;;;;;;;;;;;;;;;;4992151;28;20042;-46
2024/01/10 05:46:59;;;;;;;34.78;23.85;;;;;;;;;;4987683;28;19929;-46
2024/01/10 05:49:25;;;;;;;37.83;24.67;;;;;;;;;;4990518;28;20038;-46
2024/01/10 05:51:50;;;;;;;30.45;22.35;;;;;;;;;;4991705;28;20047;-44
2024/01/10 05:54:17;;;;;;;30.67;19.70;;;;;;;;;;4994967;28;20065;-47
2024/01/10 05:56:43;;;;;;;36.35;24.17;;;;;;;;;;4986812;28;20022;-46
2024/01/10 05:59:08;;;;;;;34.90;22.67;;;;;;;;;;4981945;28;20046;-44
2024/01/10 06:01:33;;;;;;;36.28;23.70;;;;;;;;;;4988184;28;20455;-46
2024/01/10 06:03:59;;;;;;;28.45;19.48;;;;;;;;;;4985731;28;20027;-48
2024/01/10 06:06:24;;;;;;;21.95;16.08;;;;;;;;;;4983737;28;20449;-47
2024/01/10 06:08:50;;;;;;;24.30;15.60;;;;;;;;;;4991242;28;20046;-48
2024/01/10 06:11:15;;;;;;;23.95;15.73;;;;;;;;;;4994897;28;20034;-46
2024/01/10 06:13:41;;;;;;;24.13;16.70;;;;;;;;;;4986703;28;20070;-52
2024/01/10 06:16:07;;;;;;;20.60;16.00;;;;;;;;;;4978427;28;20037;-47
2024/01/10 06:18:32;;;;;;;27.52;17.40;;;;;;;;;;4986128;28;20037;-46
2024/01/10 06:20:58;;;;;;;22.85;15.90;;;;;;;;;;4986349;28;20034;-48
2024/01/10 06:23:23;;;;;;;22.80;15.23;;;;;;;;;;4974253;28;20038;-47
2024/01/10 06:25:49;;;;;;;20.27;14.63;;;;;;;;;;4985742;28;20049;-49
2024/01/10 06:28:14;;;;;;;22.75;15.85;;;;;;;;;;4988438;28;20030;-45
2024/01/10 06:30:39;;;;;;;19.75;14.20;;;;;;;;;;4995160;28;20034;-49
2024/01/10 06:33:06;;;;;;;23.63;15.35;;;;;;;;;;4986637;28;20145;-45
2024/01/10 06:35:32;;;;;;;22.27;16.77;;;;;;;;;;4992673;28;20034;-49
2024/01/10 06:37:57;;;;;;;20.38;15.88;;;;;;;;;;4987175;28;20038;-48
2024/01/10 06:40:23;;;;;;;22.08;16.10;;;;;;;;;;4985036;28;20034;-47
2024/01/10 06:42:48;;;;;;;23.98;15.27;;;;;;;;;;4995420;28;20081;-45
2024/01/10 06:45:14;;;;;;;19.25;14.65;;;;;;;;;;4981327;28;20078;-47
2024/01/10 06:47:39;;;;;;;22.52;16.77;;;;;;;;;;4982736;28;20026;-46
2024/01/10 06:50:05;;;;;;;25.17;17.25;;;;;;;;;;4981110;28;20382;-45
2024/01/10 06:52:31;;;;;;;19.95;14.20;;;;;;;;;;4986805;28;20096;-45
2024/01/10 06:54:57;;;;;;;21.38;15.02;;;;;;;;;;4971582;28;20049;-45
2024/01/10 06:57:22;;;;;;;19.77;15.27;;;;;;;;;;4968313;28;20541;-46
2024/01/10 06:59:48;;;;;;;19.45;15.73;;;;;;;;;;4973196;28;20114;-45
2024/01/10 07:02:14;;;;;;;25.80;17.48;;;;;;;;;;4985298;28;20038;-48
2024/01/10 07:04:39;;;;;;;25.17;19.42;;;;;;;;;;4981795;28;20035;-49
2024/01/10 07:07:05;;;;;;;20.42;16.13;;;;;;;;;;4963772;28;20053;-48
2024/01/10 07:09:31;;;;;;;23.30;16.58;;;;;;;;;;4979387;28;20034;-47
2024/01/10 07:11:56;;;;;;;24.63;15.25;;;;;;;;;;4981674;28;20026;-47
2024/01/10 07:14:22;;;;;;;19.00;13.98;;;;;;;;;;4984124;28;20084;-49
2024/01/10 07:16:48;;;;;;;18.73;13.55;;;;;;;;;;4982585;28;20108;-45
2024/01/10 07:19:14;;;;;;;20.08;14.85;;;;;;;;;;4976400;28;20051;-46
2024/01/10 07:21:42;;;;;;;22.23;16.73;;;;;;;;;;4989041;28;20040;-44
2024/01/10 07:24:09;;;;;;;36.75;22.23;;;;;;;;;;4986035;28;20907;-45
2024/01/10 07:26:35;;;;;;;37.67;26.33;;;;;;;;;;4984868;28;20050;-47
2024/01/10 07:29:02;;;;;;;28.23;19.02;;;;;;;;;;4987316;28;20038;-45
2024/01/10 07:31:31;;;;;;;34.88;21.90;;;;;;;;;;4984481;28;20054;-49
2024/01/10 07:33:57;;;;;;;24.50;16.50;;;;;;;;;;4986670;28;20038;-46
2024/01/10 07:36:31;;;;;;;21.30;15.30;;;;;;;;;;4975715;28;20033;-46
2024/01/10 07:38:57;;;;;;;23.58;17.75;;;;;;;;;;4978908;28;20054;-45
2024/01/10 07:41:23;;;;;;;17.38;13.13;;;;;;;;;;4980839;28;20428;-46
2024/01/10 07:43:49;;;;;;;16.65;11.07;;;;;;;;;;4980236;28;20109;-45
2024/01/10 07:46:14;;;;;;;15.80;11.45;;;;;;;;;;4974118;28;20707;-48
2024/01/10 07:48:40;;;;;;;14.32;9.90;;;;;;;;;;4979565;28;20617;-48
2024/01/10 07:51:06;;;;;;;16.00;10.75;;;;;;;;;;4974874;28;20485;-45
2024/01/10 07:53:32;;;;;;;14.52;10.82;;;;;;;;;;4974350;28;20428;-44
2024/01/10 07:55:57;;;;;;;11.85;10.45;;;;;;;;;;4986240;28;20039;-45
2024/01/10 07:58:22;;;;;;;14.98;11.32;;;;;;;;;;4983175;28;20046;-48
2024/01/10 08:00:48;;;;;;;13.15;10.30;;;;;;;;;;4986545;28;20027;-45
2024/01/10 08:03:14;;;;;;;16.38;14.10;;;;;;;;;;4988379;28;20046;-47
2024/01/10 08:05:39;;;;;;;18.88;16.65;;;;;;;;;;4988524;28;20033;-47
2024/01/10 08:08:05;;;;;;;18.30;14.55;;;;;;;;;;4990723;28;20046;-46
2024/01/10 08:10:30;;;;;;;18.60;13.27;;;;;;;;;;4991281;28;20069;-45
2024/01/10 08:12:56;;;;;;;18.13;14.15;;;;;;;;;;4987191;28;20081;-47
2024/01/10 08:15:22;;;;;;;18.85;15.02;;;;;;;;;;4986852;28;20038;-49
2024/01/10 08:17:47;;;;;;;20.50;14.80;;;;;;;;;;4990552;28;20034;-44
2024/01/10 08:20:14;;;;;;;16.45;12.65;;;;;;;;;;4991804;28;20129;-44
2024/01/10 08:22:41;;;;;;;17.00;13.95;;;;;;;;;;4987913;28;20031;-43
2024/01/10 08:25:06;;;;;;;20.20;14.23;;;;;;;;;;4991518;28;20109;-45
2024/01/10 08:27:33;;;;;;;20.38;13.07;;;;;;;;;;4983301;28;20030;-43
2024/01/10 08:29:59;;;;;;;23.33;16.15;;;;;;;;;;4986657;28;20043;-45
2024/01/10 08:32:24;;;;;;;23.30;17.70;;;;;;;;;;4989645;28;20517;-44
2024/01/10 08:34:50;;;;;;;23.95;15.82;;;;;;;;;;4994476;28;20501;-44
2024/01/10 08:37:17;;;;;;;28.23;20.25;;;;;;;;;;4992245;28;20496;-44
2024/01/10 08:39:44;;;;;;;26.55;19.95;;;;;;;;;;4974912;28;20113;-42
2024/01/10 08:42:09;;;;;;;22.50;18.08;;;;;;;;;;4989284;28;21519;-43
2024/01/10 08:44:35;;;;;;;30.05;19.98;;;;;;;;;;4994810;28;20125;-46
2024/01/10 08:47:00;;;;;;;19.90;14.15;;;;;;;;;;4986268;28;20038;-43
2024/01/10 08:49:26;;;;;;;20.70;16.27;;;;;;;;;;4981996;28;20038;-43
2024/01/10 08:51:53;;;;;;;16.20;12.35;;;;;;;;;;4989226;28;20057;-44
2024/01/10 08:54:19;;;;;;;40.95;26.30;;;;;;;;;;4986724;28;20050;-46
2024/01/10 08:56:46;;;;;;;43.63;30.58;;;;;;;;;;4985136;28;20041;-44
2024/01/10 08:59:12;;;;;;;30.02;20.90;;;;;;;;;;4990577;28;20202;-45
2024/01/10 09:01:38;;;;;;;22.92;16.65;;;;;;;;;;4993258;28;20161;-43
2024/01/10 09:04:05;;;;;;;26.42;15.00;;;;;;;;;;4995306;28;20046;-45
2024/01/10 09:06:37;;;;;;;26.83;21.77;;;;;;;;;;4986077;28;20460;-47
2024/01/10 09:09:03;;;;;;;33.03;22.58;;;;;;;;;;4983007;28;20126;-47
2024/01/10 09:11:29;;;;;;;13.85;10.25;;;;;;;;;;4992223;28;20053;-45
2024/01/10 09:13:54;;;;;;;13.57;8.98;;;;;;;;;;5004844;28;20045;-46
2024/01/10 09:16:20;;;;;;;18.25;12.43;;;;;;;;;;4991371;28;20022;-45
2024/01/10 09:18:45;;;;;;;10.80;8.98;;;;;;;;;;4993213;28;20093;-43
2024/01/10 09:21:11;;;;;;;12.50;8.88;;;;;;;;;;4991504;28;20031;-43
2024/01/10 09:23:36;;;;;;;13.00;8.27;;;;;;;;;;4988704;28;20042;-45
2024/01/10 09:26:02;;;;;;;10.18;8.52;;;;;;;;;;4989348;28;20042;-44
2024/01/10 09:28:28;;;;;;;17.10;12.43;;;;;;;;;;4985547;28;20038;-45
2024/01/10 09:30:54;;;;;;;9.65;7.82;;;;;;;;;;4994593;28;20030;-44
2024/01/10 09:33:19;;;;;;;14.02;8.50;;;;;;;;;;4989363;28;20049;-43
2024/01/10 09:35:45;;;;;;;12.57;8.80;;;;;;;;;;4986914;28;20511;-47
2024/01/10 09:38:10;;;;;;;11.27;8.70;;;;;;;;;;4989188;28;20022;-46
2024/01/10 09:40:36;;;;;;;40.25;22.65;;;;;;;;;;4989908;28;20026;-46
2024/01/10 09:43:02;;;;;;;38.20;25.10;;;;;;;;;;4986802;28;20098;-47
2024/01/10 09:45:28;;;;;;;35.45;22.70;;;;;;;;;;4992614;28;20038;-45
2024/01/10 09:47:57;;;;;;;24.17;16.75;;;;;;;;;;4992681;28;20030;-43
2024/01/10 09:50:26;;;;;;;23.17;14.63;;;;;;;;;;4990019;28;20519;-45
2024/01/10 09:52:53;;;;;;;16.95;12.57;;;;;;;;;;4991009;28;20042;-48
2024/01/10 09:55:23;;;;;;;20.63;15.45;;;;;;;;;;4983154;28;20041;-45
2024/01/10 09:57:49;;;;;;;27.63;17.83;;;;;;;;;;4982835;28;20117;-46
2024/01/10 10:00:16;;;;;;;29.27;19.30;;;;;;;;;;4984420;28;20035;-46
2024/01/10 10:02:42;;;;;;;31.08;21.77;;;;;;;;;;4985143;28;20044;-45
2024/01/10 10:05:17;;;;;;;29.23;21.73;;;;;;;;;;4983878;28;20034;-46
2024/01/10 10:07:47;;;;;;;34.75;24.92;;;;;;;;;;4990393;28;20077;-47
2024/01/10 10:10:14;;;;;;;30.92;22.33;;;;;;;;;;4994173;28;20030;-45
2024/01/10 10:12:43;;;;;;;33.30;22.70;;;;;;;;;;4981443;28;20226;-43
2024/01/10 10:15:10;;;;;;;;;;;;;;;;;;4991154;28;20069;-45
2024/01/10 10:17:35;;;;;;;31.85;21.60;;;;;;;;;;4984751;28;19997;-46
2024/01/10 10:20:04;;;;;;;34.53;27.00;;;;;;;;;;4987860;28;20106;-44
2024/01/10 10:22:30;;;;;;;37.22;27.77;;;;;;;;;;4965918;28;20109;-44
2024/01/10 10:24:56;;;;;;;45.03;32.67;;;;;;;;;;4985508;28;20078;-45
2024/01/10 10:27:22;;;;;;;41.63;30.02;;;;;;;;;;4988645;28;20030;-45
2024/01/10 10:29:47;;;;;;;32.20;22.73;;;;;;;;;;4982077;28;20039;-45
2024/01/10 10:32:13;;;;;;;25.42;18.20;;;;;;;;;;4956396;28;20215;-48
2024/01/10 10:34:38;;;;;;;23.50;17.30;;;;;;;;;;4996323;28;20042;-48
2024/01/10 10:37:03;;;;;;;26.05;16.77;;;;;;;;;;4971102;28;20025;-48
2024/01/10 10:39:29;;;;;;;23.00;17.15;;;;;;;;;;4985192;28;20082;-47
2024/01/10 10:41:57;;;;;;;19.85;15.32;;;;;;;;;;4985687;28;20034;-43
2024/01/10 10:44:24;;;;;;;21.13;15.77;;;;;;;;;;4985062;28;20397;-44
2024/01/10 10:46:56;;;;;;;21.67;14.23;;;;;;;;;;4982325;28;20507;-45
2024/01/10 10:49:29;;;;;;;20.17;12.02;;;;;;;;;;4989522;28;20096;-44
2024/01/10 10:51:57;;;;;;;21.08;16.08;;;;;;;;;;4983343;28;20120;-47
2024/01/10 10:54:25;;;;;;;21.98;15.13;;;;;;;;;;4978944;28;20042;-43
2024/01/10 10:56:53;;;;;;;22.73;16.30;;;;;;;;;;4974831;28;20480;-46
2024/01/10 10:59:20;;;;;;;18.10;12.55;;;;;;;;;;4989014;28;20043;-45
2024/01/10 11:01:47;;;;;;;18.67;13.90;;;;;;;;;;4982090;28;20487;-46
2024/01/10 11:04:13;;;;;;;21.50;16.00;;;;;;;;;;4970374;28;20388;-46
2024/01/10 11:06:40;;;;;;;25.17;15.95;;;;;;;;;;4984647;28;20469;-46
2024/01/10 11:09:12;;;;;;;23.55;17.02;;;;;;;;;;4987381;28;20062;-47
2024/01/10 11:12:03;;;;;;;24.45;19.20;;;;;;;;;;4983074;28;20428;-47
2024/01/10 11:15:03;;;;;;;18.33;15.07;;;;;;;;;;4990901;28;20089;-47
2024/01/10 11:17:50;;;;;;;18.85;13.32;;;;;;;;;;4980138;28;20096;-47
2024/01/10 11:20:19;;;;;;;16.48;11.65;;;;;;;;;;4983984;28;20047;-47
2024/01/10 11:22:56;;;;;;;17.40;13.73;;;;;;;;;;4989981;28;20034;-47
2024/01/10 11:25:22;;;;;;;15.68;12.95;;;;;;;;;;4984691;28;20164;-48
2024/01/10 11:27:52;;;;;;;15.55;11.70;;;;;;;;;;4980754;28;20122;-47
2024/01/10 11:30:34;;;;;;;11.57;8.13;;;;;;;;;;4987914;28;20069;-48
2024/01/10 11:33:02;;;;;;;9.23;4.68;;;;;;;;;;4990452;28;20026;-45
2024/01/10 11:35:30;;;;;;;12.07;5.05;;;;;;;;;;4987742;28;20057;-47
2024/01/10 11:37:59;;;;;;;7.28;4.50;;;;;;;;;;4992037;28;20026;-48
2024/01/10 11:40:47;;;;;;;10.32;4.78;;;;;;;;;;4985698;28;20128;-47
2024/01/10 11:43:13;;;;;;;8.30;5.38;;;;;;;;;;4985662;28;20027;-48
2024/01/10 11:45:49;;;;;;;9.82;7.03;;;;;;;;;;4990461;28;20033;-48
2024/01/10 11:48:15;;;;;;;9.15;6.00;;;;;;;;;;4982743;28;20129;-45
2024/01/10 11:50:40;;;;;;;9.10;5.50;;;;;;;;;;4987525;28;20026;-49
2024/01/10 11:53:06;;;;;;;9.30;6.47;;;;;;;;;;4978421;28;20100;-50
2024/01/10 11:55:53;;;;;;;10.85;7.28;;;;;;;;;;4987753;28;20100;-49
2024/01/10 11:58:19;;;;;;;8.15;5.18;;;;;;;;;;4987413;28;20175;-46
2024/01/10 12:00:46;;;;;;;9.48;5.80;;;;;;;;;;4985661;28;20030;-48
2024/01/10 12:03:12;;;;;;;9.70;6.38;;;;;;;;;;4980565;28;20085;-46
2024/01/10 12:05:38;;;;;;;12.23;6.85;;;;;;;;;;4997442;28;20034;-46
2024/01/10 12:08:07;;;;;;;11.38;7.25;;;;;;;;;;4990877;28;20027;-45
2024/01/10 12:10:36;;;;;;;10.40;6.78;;;;;;;;;;4995039;28;20034;-50
2024/01/10 12:13:02;;;;;;;11.30;7.72;;;;;;;;;;4990380;28;20109;-49
2024/01/10 12:15:28;;;;;;;12.73;8.95;;;;;;;;;;4974522;28;20034;-46
2024/01/10 12:17:53;;;;;;;14.18;9.35;;;;;;;;;;4983572;28;20022;-44
2024/01/10 12:20:19;;;;;;;10.90;7.47;;;;;;;;;;4984548;28;20038;-49
2024/01/10 12:22:44;;;;;;;8.43;7.38;;;;;;;;;;4992943;28;20034;-49
2024/01/10 12:25:10;;;;;;;9.07;6.15;;;;;;;;;;4998668;28;20038;-49
2024/01/10 12:27:35;;;;;;;11.50;8.85;;;;;;;;;;4985008;28;20074;-44
2024/01/10 12:30:02;;;;;;;9.68;7.63;;;;;;;;;;4982305;28;20073;-49
2024/01/10 12:32:28;;;;;;;11.02;7.15;;;;;;;;;;4999689;28;20533;-47
2024/01/10 12:35:04;;;;;;;7.05;5.10;;;;;;;;;;4985628;28;20039;-48
2024/01/10 12:37:30;;;;;;;8.75;5.65;;;;;;;;;;4989550;28;20052;-48
2024/01/10 12:39:56;;;;;;;10.15;6.38;;;;;;;;;;4989846;28;20039;-46
2024/01/10 12:42:22;;;;;;;8.23;4.68;;;;;;;;;;4983942;28;20037;-50
2024/01/10 12:44:47;;;;;;;7.82;5.88;;;;;;;;;;5000646;28;20045;-49
2024/01/10 12:47:20;;;;;;;8.63;5.45;;;;;;;;;;4984914;28;20630;-47
2024/01/10 12:49:46;;;;;;;7.18;4.95;;;;;;;;;;4982158;28;20039;-45
2024/01/10 12:52:15;;;;;;;8.18;4.10;;;;;;;;;;4991657;28;20091;-46
2024/01/10 12:54:42;;;;;;;7.30;4.45;;;;;;;;;;4992856;28;20638;-47
2024/01/10 12:57:07;;;;;;;11.32;5.82;;;;;;;;;;4991142;28;20061;-46
2024/01/10 12:59:33;;;;;;;6.78;4.68;;;;;;;;;;4993289;28;20147;-47
2024/01/10 13:01:59;;;;;;;5.90;4.15;;;;;;;;;;4998088;28;20026;-48
2024/01/10 13:04:25;;;;;;;8.23;5.22;;;;;;;;;;4987947;28;20039;-46
2024/01/10 13:06:50;;;;;;;7.47;3.95;;;;;;;;;;4991043;28;20726;-47
2024/01/10 13:09:15;;;;;;;13.77;6.20;;;;;;;;;;4985186;28;20041;-46
2024/01/10 13:11:41;;;;;;;7.60;4.20;;;;;;;;;;4990768;28;20042;-46
2024/01/10 13:14:07;;;;;;;5.55;2.97;;;;;;;;;;4988960;28;20041;-50
2024/01/10 13:16:33;;;;;;;3.35;2.67;;;;;;;;;;4991380;28;20019;-45
2024/01/10 13:18:59;;;;;;;7.82;4.03;;;;;;;;;;4989548;28;20042;-45
2024/01/10 13:21:25;;;;;;;4.93;2.78;;;;;;;;;;4988367;28;20037;-45
2024/01/10 13:23:51;;;;;;;4.75;2.78;;;;;;;;;;4990178;28;20043;-46
2024/01/10 13:26:16;;;;;;;7.13;3.53;;;;;;;;;;4985997;28;20073;-49
2024/01/10 13:28:43;;;;;;;5.57;2.85;;;;;;;;;;4985071;28;20047;-46
2024/01/10 13:31:09;;;;;;;5.22;2.95;;;;;;;;;;4997344;28;20035;-51
2024/01/10 13:33:35;;;;;;;5.70;3.53;;;;;;;;;;4988247;28;20094;-46
2024/01/10 13:36:00;;;;;;;5.03;3.22;;;;;;;;;;4989661;28;20559;-49
2024/01/10 13:38:26;;;;;;;4.35;2.22;;;;;;;;;;4963274;28;20039;-49
2024/01/10 13:40:52;;;;;;;8.43;3.17;;;;;;;;;;4985923;28;20034;-50
2024/01/10 13:43:17;;;;;;;6.80;3.80;;;;;;;;;;4982132;28;20027;-48
2024/01/10 13:45:43;;;;;;;7.15;3.10;;;;;;;;;;4983661;28;20102;-50
2024/01/10 13:48:10;;;;;;;4.40;2.70;;;;;;;;;;4983070;28;20030;-47
2024/01/10 13:50:36;;;;;;;5.60;2.60;;;;;;;;;;4986482;28;20064;-46
2024/01/10 13:53:04;;;;;;;6.07;2.92;;;;;;;;;;4979472;28;20039;-48
2024/01/10 13:55:29;;;;;;;6.68;3.33;;;;;;;;;;4987022;28;20026;-47
2024/01/10 13:57:56;;;;;;;7.25;4.68;;;;;;;;;;4996183;28;20497;-49
2024/01/10 14:00:23;;;;;;;6.35;3.95;;;;;;;;;;4980393;28;20054;-46
2024/01/10 14:02:49;;;;;;;6.22;2.45;;;;;;;;;;4982103;28;20045;-46
2024/01/10 14:05:15;;;;;;;4.32;2.42;;;;;;;;;;4984759;28;20038;-45
2024/01/10 14:07:44;;;;;;;4.65;3.20;;;;;;;;;;4980000;28;20027;-45
2024/01/10 14:10:10;;;;;;;5.35;2.90;;;;;;;;;;4982832;28;20078;-48
2024/01/10 14:12:36;;;;;;;5.72;2.90;;;;;;;;;;4984259;28;20062;-46
2024/01/10 14:15:02;;;;;;;4.78;2.70;;;;;;;;;;4985675;28;20070;-48
2024/01/10 14:17:27;;;;;;;5.55;3.35;;;;;;;;;;4987633;28;20018;-48
2024/01/10 14:19:53;;;;;;;6.43;3.08;;;;;;;;;;4982941;28;20488;-46